Time;durP1;ratioP1;P1;durP2;ratioP2;P2;SDS_P1;SDS_P2;PMS_P1;PMS_P2;Temp;Humidity;BMP_temperature;BMP_pressure;BME280_temperature;BME280_humidity;BME280_pressure;Samples;Min_cycle;Max_cycle;Signal;HPM_P1;HPM_P2
2023/06/01 00:02:23;;;;;;;1.92;1.33;;;23.80;41.00;;;;;;5057486;28;20100;-66
2023/06/01 00:04:50;;;;;;;2.63;1.50;;;23.80;41.10;;;;;;5040906;28;20021;-65
2023/06/01 00:07:17;;;;;;;2.33;1.63;;;23.80;41.00;;;;;;5057515;28;20029;-64
2023/06/01 00:09:43;;;;;;;2.03;1.42;;;23.80;41.00;;;;;;5061253;28;20029;-62
2023/06/01 00:12:10;;;;;;;2.85;1.40;;;23.80;41.10;;;;;;5057472;28;20114;-61
2023/06/01 00:14:36;;;;;;;2.45;1.50;;;23.80;41.10;;;;;;5058837;28;20100;-61
2023/06/01 00:17:03;;;;;;;3.20;1.75;;;23.80;41.10;;;;;;5054699;28;20040;-62
2023/06/01 00:19:29;;;;;;;1.88;1.40;;;23.80;41.10;;;;;;5057819;28;20140;-62
2023/06/01 00:21:56;;;;;;;2.08;1.42;;;23.80;41.20;;;;;;5056931;28;20039;-64
2023/06/01 00:24:23;;;;;;;2.03;1.40;;;23.80;41.20;;;;;;5057012;28;20040;-63
2023/06/01 00:26:49;;;;;;;3.35;1.50;;;23.80;41.20;;;;;;5060199;28;20127;-64
2023/06/01 00:29:15;;;;;;;2.00;1.48;;;23.80;41.20;;;;;;5057118;28;20037;-62
2023/06/01 00:31:41;;;;;;;2.63;1.65;;;23.70;41.20;;;;;;5037402;28;20097;-64
2023/06/01 00:34:07;;;;;;;2.67;1.67;;;23.70;41.20;;;;;;5041011;28;20062;-61
2023/06/01 00:36:33;;;;;;;2.97;1.60;;;23.70;41.20;;;;;;5040092;28;20429;-61
2023/06/01 00:39:02;;;;;;;3.13;1.73;;;23.70;41.20;;;;;;5040538;28;20033;-65
2023/06/01 00:41:32;;;;;;;2.47;1.55;;;23.70;41.20;;;;;;5055352;28;20048;-63
2023/06/01 00:43:58;;;;;;;2.15;1.38;;;23.70;41.20;;;;;;5057191;28;20100;-62
2023/06/01 00:46:25;;;;;;;1.58;1.40;;;23.70;41.20;;;;;;5017776;28;20050;-65
2023/06/01 00:48:51;;;;;;;2.17;1.35;;;23.70;41.20;;;;;;5017573;28;20120;-64
2023/06/01 00:51:18;;;;;;;2.03;1.45;;;23.70;41.20;;;;;;5016281;28;20037;-61
2023/06/01 00:53:44;;;;;;;3.08;1.63;;;23.70;41.20;;;;;;5016827;28;20336;-65
2023/06/01 00:56:13;;;;;;;2.10;1.48;;;23.60;41.10;;;;;;5018991;28;20057;-62
2023/06/01 00:58:40;;;;;;;3.20;1.60;;;23.60;41.20;;;;;;5022663;28;20034;-61
2023/06/01 01:01:07;;;;;;;1.80;1.50;;;23.60;41.20;;;;;;5018140;28;20117;-64
2023/06/01 01:03:38;;;;;;;4.07;1.20;;;23.60;41.20;;;;;;5022911;28;20113;-61
2023/06/01 01:06:25;;;;;;;2.15;1.50;;;23.60;41.20;;;;;;5018940;28;20467;-64
2023/06/01 01:09:17;;;;;;;2.30;1.50;;;23.60;41.20;;;;;;5014295;28;20029;-65
2023/06/01 01:11:51;;;;;;;2.90;1.30;;;23.60;41.20;;;;;;5014054;28;20092;-65
2023/06/01 01:14:25;;;;;;;2.55;1.40;;;23.60;41.20;;;;;;5015600;28;20030;-66
2023/06/01 01:17:20;;;;;;;2.08;1.45;;;23.60;41.20;;;;;;5011611;28;20030;-64
2023/06/01 01:19:58;;;;;;;3.33;1.70;;;23.60;41.20;;;;;;5016864;28;20049;-62
2023/06/01 01:22:53;;;;;;;2.08;1.40;;;23.50;41.20;;;;;;5019322;28;20526;-65
2023/06/01 01:25:50;;;;;;;3.90;1.40;;;23.50;41.20;;;;;;5020063;28;20026;-62
2023/06/01 01:28:50;;;;;;;2.53;1.45;;;23.50;41.20;;;;;;5021526;28;20112;-63
2023/06/01 01:31:22;;;;;;;3.63;1.45;;;23.50;41.20;;;;;;5016149;28;20041;-63
2023/06/01 01:33:53;;;;;;;2.88;1.75;;;23.50;41.20;;;;;;5017123;28;20149;-61
2023/06/01 01:36:19;;;;;;;2.13;1.48;;;23.50;41.20;;;;;;5028980;28;20123;-66
2023/06/01 01:38:47;;;;;;;3.42;1.50;;;23.50;41.30;;;;;;5018616;28;20109;-64
2023/06/01 01:41:13;;;;;;;2.70;1.20;;;23.50;41.30;;;;;;5009104;28;20337;-65
2023/06/01 01:43:40;;;;;;;2.83;1.67;;;23.40;41.30;;;;;;5021674;28;20024;-62
2023/06/01 01:46:13;;;;;;;2.58;1.48;;;23.40;41.30;;;;;;5020516;28;20340;-62
2023/06/01 01:48:51;;;;;;;2.13;1.40;;;23.40;41.30;;;;;;5020751;28;20427;-64
2023/06/01 01:51:24;;;;;;;2.30;1.60;;;23.40;41.30;;;;;;5020142;28;20042;-65
2023/06/01 01:53:52;;;;;;;2.30;1.23;;;23.40;41.30;;;;;;5019692;28;20025;-61
2023/06/01 01:56:19;;;;;;;2.92;1.50;;;23.40;41.30;;;;;;5017249;28;20456;-61
2023/06/01 01:58:47;;;;;;;2.65;1.40;;;23.40;41.40;;;;;;5014595;28;20017;-62
2023/06/01 02:01:13;;;;;;;3.97;1.67;;;23.40;41.40;;;;;;5011967;28;20164;-64
2023/06/01 02:03:39;;;;;;;2.25;1.30;;;23.40;41.40;;;;;;5014704;28;20103;-63
2023/06/01 02:06:05;;;;;;;2.55;1.60;;;23.40;41.40;;;;;;5016611;28;20429;-63
2023/06/01 02:08:31;;;;;;;2.85;1.80;;;23.30;41.40;;;;;;5013437;28;20028;-63
2023/06/01 02:10:57;;;;;;;2.53;1.60;;;23.40;41.50;;;;;;5001268;28;20033;-65
2023/06/01 02:13:23;;;;;;;2.47;1.58;;;23.40;41.50;;;;;;5012701;28;20497;-64
2023/06/01 02:15:49;;;;;;;2.42;1.50;;;23.40;41.50;;;;;;5022447;28;20379;-66
2023/06/01 02:18:17;;;;;;;2.35;1.42;;;23.30;41.50;;;;;;5007516;28;20346;-62
2023/06/01 02:20:45;;;;;;;2.67;1.45;;;23.30;41.50;;;;;;5020283;28;20444;-66
2023/06/01 02:23:11;;;;;;;2.17;1.50;;;23.30;41.50;;;;;;5011331;28;20097;-64
2023/06/01 02:25:37;;;;;;;2.40;1.38;;;23.30;41.50;;;;;;5020276;28;20029;-61
2023/06/01 02:28:04;;;;;;;5.57;1.33;;;23.30;41.50;;;;;;5021494;28;20088;-65
2023/06/01 02:30:30;;;;;;;2.38;1.30;;;23.30;41.50;;;;;;5020165;28;20116;-63
2023/06/01 02:32:57;;;;;;;2.55;1.40;;;23.30;41.50;;;;;;5007290;28;20426;-63
2023/06/01 02:35:23;;;;;;;2.30;1.50;;;23.30;41.50;;;;;;5018847;28;20488;-63
2023/06/01 02:37:49;;;;;;;1.42;1.30;;;23.30;41.40;;;;;;5018388;28;20334;-63
2023/06/01 02:40:16;;;;;;;2.28;1.60;;;23.30;41.40;;;;;;5019946;28;20025;-66
2023/06/01 02:42:43;;;;;;;1.80;1.45;;;23.30;41.40;;;;;;5018985;28;20423;-62
2023/06/01 02:45:09;;;;;;;2.85;1.50;;;23.30;41.40;;;;;;5027157;28;20088;-62
2023/06/01 02:47:35;;;;;;;2.97;1.73;;;23.20;41.40;;;;;;5037138;28;20021;-62
2023/06/01 02:50:01;;;;;;;2.17;1.55;;;23.20;41.40;;;;;;5040880;28;20039;-62
2023/06/01 02:52:29;;;;;;;2.53;1.50;;;23.30;41.40;;;;;;5033670;28;20128;-64
2023/06/01 02:54:56;;;;;;;2.30;1.50;;;23.20;41.40;;;;;;5030356;28;20112;-63
2023/06/01 02:57:44;;;;;;;3.08;1.60;;;23.20;41.40;;;;;;5035116;28;20067;-65
2023/06/01 03:00:15;;;;;;;1.92;1.30;;;23.20;41.40;;;;;;5032569;28;20429;-67
2023/06/01 03:02:47;;;;;;;2.05;1.33;;;23.20;41.30;;;;;;5031744;28;20360;-61
2023/06/01 03:05:16;;;;;;;2.10;1.55;;;23.20;41.40;;;;;;5029854;28;20350;-65
2023/06/01 03:07:45;;;;;;;2.63;1.50;;;23.20;41.40;;;;;;5029843;28;20079;-63
2023/06/01 03:10:20;;;;;;;2.03;1.38;;;23.20;41.40;;;;;;5033383;28;20063;-61
2023/06/01 03:13:09;;;;;;;2.20;1.45;;;23.20;41.40;;;;;;5028683;28;20126;-64
2023/06/01 03:15:37;;;;;;;3.95;1.50;;;23.20;41.40;;;;;;5033287;28;20406;-63
2023/06/01 03:18:05;;;;;;;2.17;1.40;;;23.20;41.40;;;;;;5027864;28;20069;-64
2023/06/01 03:20:32;;;;;;;2.00;1.50;;;23.20;41.30;;;;;;5029716;28;20029;-64
2023/06/01 03:22:58;;;;;;;1.70;1.30;;;23.10;41.30;;;;;;5030430;28;20052;-64
2023/06/01 03:25:24;;;;;;;2.60;1.58;;;23.10;41.30;;;;;;5030162;28;20127;-66
2023/06/01 03:27:50;;;;;;;3.25;1.55;;;23.10;41.30;;;;;;5033975;28;20405;-64
2023/06/01 03:30:16;;;;;;;2.70;1.50;;;23.10;41.30;;;;;;5029576;28;20075;-63
2023/06/01 03:32:44;;;;;;;2.72;1.67;;;23.10;41.30;;;;;;5033011;28;20150;-62
2023/06/01 03:35:11;;;;;;;3.55;1.70;;;23.10;41.30;;;;;;5038091;28;20112;-63
2023/06/01 03:37:40;;;;;;;3.15;1.75;;;23.10;41.30;;;;;;5036363;28;20444;-66
2023/06/01 03:40:10;;;;;;;2.10;1.40;;;23.10;41.30;;;;;;5037136;28;20025;-65
2023/06/01 03:42:45;;;;;;;3.30;1.63;;;23.10;41.30;;;;;;5037493;28;20048;-64
2023/06/01 03:45:14;;;;;;;3.42;1.50;;;23.10;41.40;;;;;;5037928;28;20440;-62
2023/06/01 03:47:40;;;;;;;2.33;1.60;;;23.10;41.40;;;;;;5038448;28;20167;-65
2023/06/01 03:50:10;;;;;;;3.03;1.70;;;23.10;41.40;;;;;;5029274;28;20025;-64
2023/06/01 03:52:37;;;;;;;2.30;1.58;;;23.00;41.30;;;;;;5036867;28;20103;-63
2023/06/01 03:55:10;;;;;;;3.13;1.77;;;23.10;41.40;;;;;;5035705;28;20112;-65
2023/06/01 03:58:02;;;;;;;3.08;1.80;;;23.00;41.40;;;;;;5034119;28;20382;-63
2023/06/01 04:00:31;;;;;;;3.33;1.60;;;23.10;41.40;;;;;;5035530;28;20075;-61
2023/06/01 04:03:01;;;;;;;2.08;1.67;;;23.00;41.40;;;;;;5035839;28;20437;-60
2023/06/01 04:05:27;;;;;;;3.25;1.67;;;23.00;41.30;;;;;;5037813;28;20029;-61
2023/06/01 04:07:55;;;;;;;2.78;1.70;;;23.00;41.30;;;;;;5023874;28;20120;-66
2023/06/01 04:10:22;;;;;;;3.15;1.45;;;23.00;41.40;;;;;;5013834;28;20037;-61
2023/06/01 04:12:49;;;;;;;2.95;1.70;;;23.00;41.40;;;;;;5028140;28;20111;-61
2023/06/01 04:15:18;;;;;;;2.72;1.60;;;23.00;41.40;;;;;;5010416;28;20029;-65
2023/06/01 04:17:44;;;;;;;1.80;1.45;;;23.00;41.40;;;;;;5029188;28;20029;-65
2023/06/01 04:20:16;;;;;;;3.35;1.73;;;23.00;41.40;;;;;;5035010;28;20113;-62
2023/06/01 04:22:45;;;;;;;2.88;1.85;;;23.00;41.40;;;;;;5036742;28;20028;-61
2023/06/01 04:25:12;;;;;;;2.20;1.60;;;23.00;41.40;;;;;;5038376;28;20040;-60
2023/06/01 04:27:46;;;;;;;2.08;1.42;;;23.00;41.30;;;;;;5034745;28;20043;-61
2023/06/01 04:30:13;;;;;;;2.10;1.63;;;23.00;41.40;;;;;;5026446;28;20021;-63
2023/06/01 04:32:40;;;;;;;2.75;1.58;;;23.00;41.40;;;;;;5032568;28;20112;-63
2023/06/01 04:35:08;;;;;;;2.80;1.45;;;23.00;41.40;;;;;;5036148;28;20375;-63
2023/06/01 04:37:35;;;;;;;3.17;2.03;;;23.00;41.40;;;;;;5037108;28;20025;-63
2023/06/01 04:40:09;;;;;;;2.42;1.50;;;23.00;41.40;;;;;;5035836;28;20389;-63
2023/06/01 04:42:38;;;;;;;2.58;1.67;;;23.00;41.40;;;;;;5033493;28;20037;-65
2023/06/01 04:45:09;;;;;;;3.35;1.63;;;23.00;41.40;;;;;;4995772;28;1204685;-63
2023/06/01 04:47:39;;;;;;;3.20;1.77;;;23.00;41.40;;;;;;5033654;28;20284;-63
2023/06/01 04:50:10;;;;;;;2.90;1.73;;;22.90;41.30;;;;;;5032088;28;20064;-63
2023/06/01 04:52:40;;;;;;;3.42;1.63;;;23.00;41.40;;;;;;5027678;28;20072;-62
2023/06/01 04:55:07;;;;;;;2.90;1.70;;;22.90;41.40;;;;;;5036854;28;20098;-64
2023/06/01 04:57:38;;;;;;;3.53;1.80;;;22.90;41.40;;;;;;5035364;28;20428;-65
2023/06/01 05:00:13;;;;;;;3.65;2.17;;;22.90;41.40;;;;;;5032692;28;20139;-63
2023/06/01 05:02:46;;;;;;;2.65;1.70;;;22.90;41.40;;;;;;5030442;28;20396;-64
2023/06/01 05:05:13;;;;;;;2.75;1.52;;;22.90;41.40;;;;;;5029683;28;20033;-62
2023/06/01 05:07:41;;;;;;;3.75;1.80;;;22.90;41.40;;;;;;5028696;28;20036;-62
2023/06/01 05:10:10;;;;;;;2.40;1.83;;;22.90;41.40;;;;;;5024602;28;20025;-61
2023/06/01 05:12:43;;;;;;;2.40;1.70;;;22.90;41.40;;;;;;5029791;28;20040;-65
2023/06/01 05:15:11;;;;;;;3.10;1.88;;;22.90;41.40;;;;;;5037746;28;20033;-65
2023/06/01 05:17:38;;;;;;;3.17;1.80;;;22.90;41.40;;;;;;5037447;28;20025;-63
2023/06/01 05:20:11;;;;;;;2.92;1.52;;;22.90;41.40;;;;;;5036593;28;20079;-62
2023/06/01 05:22:38;;;;;;;3.20;1.75;;;22.90;42.00;;;;;;5035369;28;20040;-65
2023/06/01 05:25:08;;;;;;;3.30;1.98;;;22.90;41.40;;;;;;5036899;28;20048;-63
2023/06/01 05:27:35;;;;;;;2.53;1.60;;;22.90;41.40;;;;;;5037039;28;20033;-63
2023/06/01 05:30:02;;;;;;;2.13;1.58;;;22.90;41.30;;;;;;5036016;28;20186;-62
2023/06/01 05:32:29;;;;;;;2.28;1.70;;;22.90;41.40;;;;;;5035362;28;20041;-64
2023/06/01 05:35:02;;;;;;;3.08;1.95;;;22.90;41.30;;;;;;5036348;28;20025;-64
2023/06/01 05:37:28;;;;;;;3.13;2.22;;;22.90;41.30;;;;;;5037531;28;20167;-65
2023/06/01 05:39:54;;;;;;;4.05;2.25;;;22.90;41.30;;;;;;5035073;28;20114;-65
2023/06/01 05:42:20;;;;;;;3.88;2.05;;;22.90;41.30;;;;;;5032481;28;20024;-63
2023/06/01 05:44:46;;;;;;;2.85;1.85;;;22.90;41.40;;;;;;5029596;28;20149;-64
2023/06/01 05:47:12;;;;;;;2.58;1.88;;;22.90;41.40;;;;;;5015132;28;20036;-65
2023/06/01 05:49:39;;;;;;;4.25;1.80;;;22.90;41.50;;;;;;5018621;28;20073;-62
2023/06/01 05:52:07;;;;;;;3.42;2.28;;;22.90;41.50;;;;;;5013055;28;20056;-61
2023/06/01 05:54:33;;;;;;;3.92;1.83;;;22.90;41.50;;;;;;5015544;28;20034;-65
2023/06/01 05:56:59;;;;;;;4.05;2.33;;;22.90;41.50;;;;;;5018246;28;20039;-65
2023/06/01 05:59:25;;;;;;;4.10;2.05;;;22.90;41.50;;;;;;5010687;28;20356;-65
2023/06/01 06:01:51;;;;;;;4.90;2.38;;;22.90;41.50;;;;;;5009889;28;20029;-63
2023/06/01 06:04:17;;;;;;;6.72;2.50;;;22.90;41.50;;;;;;5016606;28;20029;-61
2023/06/01 06:06:43;;;;;;;5.35;2.85;;;22.90;41.50;;;;;;5018374;28;20030;-62
2023/06/01 06:09:10;;;;;;;3.20;2.25;;;22.90;41.50;;;;;;5011032;28;20054;-63
2023/06/01 06:11:36;;;;;;;4.90;2.17;;;22.90;41.40;;;;;;5011614;28;20042;-62
2023/06/01 06:14:01;;;;;;;3.75;2.40;;;22.90;41.40;;;;;;5012254;28;20034;-64
2023/06/01 06:16:27;;;;;;;4.18;2.38;;;23.00;41.40;;;;;;5013275;28;20053;-64
2023/06/01 06:18:53;;;;;;;5.70;2.50;;;22.90;41.30;;;;;;5022193;28;20037;-62
2023/06/01 06:21:19;;;;;;;6.50;2.72;;;22.90;41.30;;;;;;5012595;28;20030;-63
2023/06/01 06:23:45;;;;;;;4.68;2.55;;;23.00;41.30;;;;;;5013576;28;20377;-63
2023/06/01 06:26:11;;;;;;;4.80;2.50;;;23.00;41.30;;;;;;5012893;28;20022;-64
2023/06/01 06:28:36;;;;;;;4.78;2.60;;;22.90;41.20;;;;;;5015424;28;20555;-63
2023/06/01 06:31:03;;;;;;;5.18;2.80;;;22.90;41.90;;;;;;5014863;28;20127;-65
2023/06/01 06:33:28;;;;;;;4.43;2.65;;;22.90;41.20;;;;;;5012327;28;20033;-62
2023/06/01 06:35:54;;;;;;;4.70;2.70;;;23.00;41.30;;;;;;5009618;28;20022;-63
2023/06/01 06:38:20;;;;;;;4.90;2.70;;;23.00;41.30;;;;;;5019304;28;20026;-62
2023/06/01 06:40:46;;;;;;;5.80;2.90;;;23.00;41.30;;;;;;5018268;28;20037;-62
2023/06/01 06:43:13;;;;;;;4.25;2.80;;;23.00;41.90;;;;;;5020850;28;20031;-64
2023/06/01 06:45:41;;;;;;;4.03;2.90;;;23.00;41.30;;;;;;5040897;28;20499;-63
2023/06/01 06:48:07;;;;;;;8.38;3.35;;;23.00;41.30;;;;;;5053116;28;20056;-61
2023/06/01 06:50:33;;;;;;;5.32;3.17;;;23.00;41.20;;;;;;5033459;28;20154;-62
2023/06/01 06:53:00;;;;;;;6.53;2.95;;;23.00;41.20;;;;;;5055564;28;20040;-63
2023/06/01 06:55:26;;;;;;;6.75;3.28;;;23.00;41.20;;;;;;5059786;28;20102;-64
2023/06/01 06:57:52;;;;;;;5.78;3.00;;;23.00;41.10;;;;;;5040531;28;20029;-65
2023/06/01 07:00:20;;;;;;;8.07;3.17;;;23.00;41.10;;;;;;5053668;28;20127;-64
2023/06/01 07:02:46;;;;;;;7.10;3.60;;;23.00;41.00;;;;;;5058997;28;20032;-62
2023/06/01 07:05:12;;;;;;;5.88;3.17;;;23.00;40.90;;;;;;5059633;28;20094;-65
2023/06/01 07:07:40;;;;;;;5.70;3.03;;;23.00;40.90;;;;;;5051660;28;20116;-63
2023/06/01 07:10:07;;;;;;;4.75;2.90;;;23.00;40.80;;;;;;5055484;28;20032;-62
2023/06/01 07:12:33;;;;;;;5.50;3.03;;;23.00;40.70;;;;;;5059631;28;20036;-64
2023/06/01 07:15:00;;;;;;;4.80;2.60;;;23.00;40.60;;;;;;5056887;28;20090;-63
2023/06/01 07:17:26;;;;;;;5.45;3.13;;;23.10;40.60;;;;;;5061547;28;20037;-63
2023/06/01 07:19:52;;;;;;;4.63;2.95;;;23.00;40.50;;;;;;5056499;28;20099;-62
2023/06/01 07:22:17;;;;;;;4.13;2.70;;;23.10;40.50;;;;;;5033406;28;20057;-62
2023/06/01 07:24:44;;;;;;;4.72;2.88;;;23.00;40.40;;;;;;5057945;28;20020;-63
2023/06/01 07:27:11;;;;;;;5.20;2.75;;;23.10;40.40;;;;;;5041133;28;21422;-66
2023/06/01 07:29:37;;;;;;;5.22;2.75;;;23.10;40.40;;;;;;5055720;28;20048;-62
2023/06/01 07:32:04;;;;;;;4.30;2.70;;;23.10;40.40;;;;;;5051370;28;20143;-62
2023/06/01 07:34:30;;;;;;;3.33;2.25;;;23.10;40.40;;;;;;5071087;28;20043;-65
2023/06/01 07:36:58;;;;;;;5.93;2.60;;;23.10;40.20;;;;;;5043890;28;20025;-63
2023/06/01 07:39:25;;;;;;;4.65;2.70;;;23.10;40.20;;;;;;5051263;28;20177;-64
2023/06/01 07:41:53;;;;;;;4.30;2.88;;;23.10;40.20;;;;;;5050659;28;20037;-63
2023/06/01 07:44:20;;;;;;;4.25;2.70;;;23.10;40.20;;;;;;5051025;28;20056;-65
2023/06/01 07:46:46;;;;;;;4.07;2.60;;;23.10;40.20;;;;;;5050971;28;20033;-65
2023/06/01 07:49:14;;;;;;;3.92;2.60;;;23.20;40.20;;;;;;5057301;28;20095;-65
2023/06/01 07:51:43;;;;;;;4.47;2.60;;;23.10;40.10;;;;;;5036976;28;20405;-66
2023/06/01 07:54:09;;;;;;;4.07;2.33;;;23.10;40.00;;;;;;5053462;28;20069;-64
2023/06/01 07:56:35;;;;;;;5.18;2.30;;;23.20;40.00;;;;;;5033811;28;20075;-67
2023/06/01 07:59:01;;;;;;;3.60;2.13;;;23.20;40.00;;;;;;5070574;28;20063;-62
2023/06/01 08:01:27;;;;;;;3.97;2.30;;;23.20;40.00;;;;;;5052444;28;20111;-66
2023/06/01 08:03:55;;;;;;;3.45;2.28;;;23.20;39.90;;;;;;5056883;28;20107;-63
2023/06/01 08:06:24;;;;;;;2.60;1.63;;;23.20;39.90;;;;;;5056214;28;20106;-63
2023/06/01 08:08:51;;;;;;;2.65;2.00;;;23.20;39.80;;;;;;5053450;28;20028;-66
2023/06/01 08:11:16;;;;;;;2.95;1.95;;;23.20;39.80;;;;;;5061134;28;20071;-62
2023/06/01 08:13:45;;;;;;;3.70;2.28;;;23.20;39.70;;;;;;5062465;28;20405;-63
2023/06/01 08:16:13;;;;;;;3.28;1.90;;;23.20;39.70;;;;;;5055766;28;20412;-64
2023/06/01 08:18:39;;;;;;;3.33;2.10;;;23.20;39.70;;;;;;5055147;28;20116;-65
2023/06/01 08:21:05;;;;;;;3.33;2.10;;;23.20;39.70;;;;;;5063453;28;20029;-66
2023/06/01 08:23:32;;;;;;;3.83;2.20;;;23.20;39.70;;;;;;5058110;28;20424;-63
2023/06/01 08:25:58;;;;;;;3.25;2.08;;;23.20;39.60;;;;;;5050339;28;20081;-65
2023/06/01 08:28:24;;;;;;;2.17;1.67;;;23.20;39.60;;;;;;5051096;28;20029;-63
2023/06/01 08:30:50;;;;;;;3.78;2.35;;;23.20;39.60;;;;;;5055982;28;20095;-65
2023/06/01 08:33:16;;;;;;;3.00;2.00;;;23.20;39.70;;;;;;5056737;28;20032;-61
2023/06/01 08:35:42;;;;;;;3.78;2.35;;;23.20;39.70;;;;;;5050061;28;20089;-63
2023/06/01 08:38:08;;;;;;;4.53;2.38;;;23.20;39.80;;;;;;5056224;28;20081;-64
2023/06/01 08:40:34;;;;;;;3.45;2.50;;;23.30;39.80;;;;;;5070428;28;20109;-63
2023/06/01 08:43:12;;;;;;;2.55;2.10;;;23.20;39.70;;;;;;5070793;28;20448;-64
2023/06/01 08:45:38;;;;;;;4.10;2.13;;;23.20;40.30;;;;;;5070425;28;20147;-63
2023/06/01 08:48:08;;;;;;;3.70;2.22;;;23.20;39.60;;;;;;5068589;28;20115;-65
2023/06/01 08:50:36;;;;;;;4.90;2.50;;;23.30;39.70;;;;;;5070513;28;20028;-63
2023/06/01 08:53:03;;;;;;;3.58;2.35;;;23.30;39.60;;;;;;5069977;28;20040;-63
2023/06/01 08:55:29;;;;;;;4.15;2.65;;;23.30;39.50;;;;;;5052103;28;20081;-62
2023/06/01 08:57:56;;;;;;;3.78;2.33;;;23.30;39.50;;;;;;5052363;28;20062;-63
2023/06/01 09:00:23;;;;;;;3.13;2.00;;;23.30;39.50;;;;;;5069858;28;20114;-62
2023/06/01 09:02:49;;;;;;;3.65;2.00;;;23.30;39.50;;;;;;5048794;28;20063;-61
2023/06/01 09:05:17;;;;;;;3.45;2.03;;;23.30;39.50;;;;;;5032115;28;20047;-61
2023/06/01 09:07:43;;;;;;;2.97;1.98;;;23.30;39.40;;;;;;5058599;28;20041;-62
2023/06/01 09:10:09;;;;;;;4.28;2.22;;;23.30;39.40;;;;;;5052034;28;20083;-63
2023/06/01 09:12:40;;;;;;;2.85;1.92;;;23.30;39.30;;;;;;5064519;28;20048;-63
2023/06/01 09:15:07;;;;;;;3.10;2.00;;;23.30;39.30;;;;;;5049758;28;20108;-64
2023/06/01 09:17:34;;;;;;;3.60;2.10;;;23.30;39.30;;;;;;5052252;28;20033;-63
2023/06/01 09:20:00;;;;;;;4.38;2.22;;;23.30;39.30;;;;;;5036026;28;20102;-61
2023/06/01 09:22:45;;;;;;;4.05;1.92;;;23.30;39.20;;;;;;5062157;28;20077;-62
2023/06/01 09:25:13;;;;;;;2.47;1.80;;;23.30;39.10;;;;;;5073935;28;20043;-63
2023/06/01 09:27:44;;;;;;;3.85;2.00;;;23.30;39.10;;;;;;5070796;28;20033;-61
2023/06/01 09:30:13;;;;;;;2.55;1.75;;;23.30;39.10;;;;;;5042789;28;20062;-64
2023/06/01 09:32:41;;;;;;;3.10;2.10;;;23.30;39.10;;;;;;5073737;28;20390;-63
2023/06/01 09:35:07;;;;;;;2.80;1.70;;;23.30;39.10;;;;;;5064234;28;20109;-62
2023/06/01 09:37:36;;;;;;;3.63;2.25;;;23.30;39.10;;;;;;5070858;28;20111;-64
2023/06/01 09:40:15;;;;;;;2.70;1.98;;;23.30;39.20;;;;;;5051057;28;20029;-62
2023/06/01 09:42:42;;;;;;;5.45;2.20;;;23.30;39.80;;;;;;5052962;28;20032;-62
2023/06/01 09:45:37;;;;;;;6.10;2.25;;;23.30;39.20;;;;;;5053458;28;20064;-65
2023/06/01 09:48:18;;;;;;;4.13;1.95;;;23.30;39.10;;;;;;5055496;28;20037;-62
2023/06/01 09:50:44;;;;;;;4.10;2.45;;;23.30;39.10;;;;;;5073044;28;20369;-63
2023/06/01 09:53:10;;;;;;;4.85;2.70;;;23.30;39.20;;;;;;5069189;28;20047;-64
2023/06/01 09:55:55;;;;;;;4.75;3.05;;;23.40;39.30;;;;;;5072582;28;20127;-65
2023/06/01 09:58:22;;;;;;;5.13;3.10;;;23.30;39.20;;;;;;5055141;28;20142;-61
2023/06/01 10:00:50;;;;;;;5.00;2.78;;;23.40;39.20;;;;;;5072944;28;20474;-60
2023/06/01 10:03:17;;;;;;;4.50;2.85;;;23.30;39.10;;;;;;5073238;28;20120;-65
2023/06/01 10:05:45;;;;;;;4.40;2.67;;;23.40;39.10;;;;;;5040556;28;20037;-63
2023/06/01 10:08:13;;;;;;;4.50;2.70;;;23.30;39.10;;;;;;5056079;28;20358;-62
2023/06/01 10:10:43;;;;;;;5.10;2.60;;;23.30;39.00;;;;;;5039977;28;20046;-63
2023/06/01 10:13:10;;;;;;;5.00;3.00;;;23.40;39.10;;;;;;5060040;28;20059;-63
2023/06/01 10:15:37;;;;;;;4.10;2.60;;;23.40;39.10;;;;;;5059229;28;20439;-65
2023/06/01 10:18:04;;;;;;;5.18;2.83;;;23.40;39.10;;;;;;5052185;28;20029;-64
2023/06/01 10:20:35;;;;;;;3.85;2.60;;;23.40;39.20;;;;;;5060061;28;20090;-66
2023/06/01 10:23:02;;;;;;;4.43;2.58;;;23.40;39.20;;;;;;5059060;28;20033;-63
2023/06/01 10:25:44;;;;;;;4.32;2.65;;;23.40;39.20;;;;;;5040994;28;20037;-65
2023/06/01 10:28:11;;;;;;;4.18;2.22;;;23.40;39.10;;;;;;5039904;28;20365;-65
2023/06/01 10:30:37;;;;;;;2.85;1.77;;;23.40;39.30;;;;;;5034675;28;20088;-64
2023/06/01 10:33:04;;;;;;;4.45;2.60;;;23.40;39.50;;;;;;5059318;28;20036;-65
2023/06/01 10:35:30;;;;;;;3.28;2.25;;;23.40;39.60;;;;;;5045565;28;20134;-68
2023/06/01 10:38:06;;;;;;;3.55;1.92;;;23.50;39.80;;;;;;5053666;28;20173;-65
2023/06/01 10:40:39;;;;;;;4.63;2.28;;;23.50;39.80;;;;;;5032121;28;20033;-65
2023/06/01 10:43:40;;;;;;;3.28;2.17;;;23.50;39.70;;;;;;5045484;28;20115;-64
2023/06/01 10:46:35;;;;;;;2.67;1.73;;;23.60;39.50;;;;;;5041203;28;20136;-64
2023/06/01 10:49:05;;;;;;;3.40;1.85;;;23.70;39.20;;;;;;5032738;28;20025;-67
2023/06/01 10:51:36;;;;;;;2.67;1.77;;;23.70;39.00;;;;;;5031912;28;20146;-67
2023/06/01 10:54:33;;;;;;;3.35;1.85;;;23.70;38.90;;;;;;5030167;28;20033;-69
2023/06/01 10:57:25;;;;;;;3.53;2.40;;;23.80;38.80;;;;;;5032949;28;20517;-66
2023/06/01 11:00:15;;;;;;;3.35;2.20;;;23.80;38.60;;;;;;5029073;28;20318;-63
2023/06/01 11:03:06;;;;;;;3.47;1.95;;;23.80;38.60;;;;;;5033667;28;20334;-63
2023/06/01 11:05:46;;;;;;;2.97;1.60;;;23.90;38.70;;;;;;5032177;28;20095;-64
2023/06/01 11:08:34;;;;;;;3.15;2.00;;;23.80;38.60;;;;;;5027677;28;20029;-64
2023/06/01 11:11:06;;;;;;;3.35;2.05;;;23.90;38.70;;;;;;5033345;28;20449;-63
2023/06/01 11:13:37;;;;;;;2.88;1.70;;;23.80;38.60;;;;;;5036336;28;20029;-68
2023/06/01 11:16:42;;;;;;;3.28;2.13;;;23.90;38.60;;;;;;5030526;28;20390;-62
2023/06/01 11:19:09;;;;;;;3.88;1.90;;;23.80;38.50;;;;;;5029289;28;20113;-64
2023/06/01 11:21:39;;;;;;;3.08;1.90;;;23.90;38.50;;;;;;5034818;28;20055;-70
2023/06/01 11:24:11;;;;;;;3.55;2.05;;;23.80;38.50;;;;;;5021881;28;20313;-65
2023/06/01 11:26:42;;;;;;;3.55;2.20;;;23.80;38.60;;;;;;5028796;28;20039;-66
2023/06/01 11:29:22;;;;;;;3.80;1.77;;;23.80;38.80;;;;;;5031753;28;20061;-64
2023/06/01 11:31:49;;;;;;;2.65;1.60;;;23.80;38.70;;;;;;5027483;28;20195;-63
2023/06/01 11:34:18;;;;;;;3.10;1.77;;;23.80;38.70;;;;;;5036550;28;20022;-63
2023/06/01 11:36:48;;;;;;;3.67;1.80;;;23.80;38.50;;;;;;5035942;28;20336;-64
2023/06/01 11:39:21;;;;;;;2.92;1.92;;;23.80;38.50;;;;;;5032496;28;20106;-63
2023/06/01 11:41:53;;;;;;;3.38;2.00;;;23.80;38.50;;;;;;5034328;28;20090;-64
2023/06/01 11:44:19;;;;;;;2.88;1.83;;;23.90;38.60;;;;;;5034496;28;20478;-65
2023/06/01 11:46:53;;;;;;;2.97;1.92;;;23.90;38.60;;;;;;5052699;28;20025;-63
2023/06/01 11:49:18;;;;;;;2.80;1.70;;;23.80;38.50;;;;;;5052171;28;20044;-65
2023/06/01 11:51:45;;;;;;;3.42;2.03;;;23.90;38.60;;;;;;5047984;28;20643;-66
2023/06/01 11:54:11;;;;;;;3.83;1.98;;;23.80;38.50;;;;;;5036623;28;20036;-65
2023/06/01 11:56:39;;;;;;;3.10;1.80;;;23.80;38.50;;;;;;5049890;28;20091;-63
2023/06/01 11:59:08;;;;;;;3.10;1.90;;;23.80;38.50;;;;;;5053416;28;20025;-63
2023/06/01 12:01:55;;;;;;;3.00;1.73;;;23.80;38.50;;;;;;5034401;28;20103;-63
2023/06/01 12:04:25;;;;;;;3.13;2.30;;;23.90;38.50;;;;;;5046676;28;20045;-65
2023/06/01 12:07:07;;;;;;;3.03;2.00;;;23.80;38.50;;;;;;5047265;28;20111;-65
2023/06/01 12:09:34;;;;;;;3.08;1.80;;;23.80;38.50;;;;;;5050524;28;20037;-64
2023/06/01 12:12:00;;;;;;;2.65;1.80;;;23.90;38.50;;;;;;5049744;28;20116;-64
2023/06/01 12:14:27;;;;;;;3.20;1.85;;;23.80;38.40;;;;;;5048426;28;20102;-65
2023/06/01 12:17:02;;;;;;;3.33;2.00;;;23.80;38.40;;;;;;5049301;28;20511;-66
2023/06/01 12:19:28;;;;;;;3.35;1.90;;;23.80;38.50;;;;;;5061372;28;20036;-63
2023/06/01 12:21:56;;;;;;;3.38;2.22;;;23.90;38.80;;;;;;5032564;28;20116;-64
2023/06/01 12:24:29;;;;;;;4.72;2.60;;;23.90;38.90;;;;;;5058196;28;20037;-61
2023/06/01 12:26:57;;;;;;;4.55;2.20;;;23.90;39.00;;;;;;5052026;28;20086;-61
2023/06/01 12:29:41;;;;;;;2.88;1.92;;;23.90;39.10;;;;;;5049360;28;20094;-63
2023/06/01 12:32:08;;;;;;;4.35;2.30;;;24.00;39.20;;;;;;5046745;28;20056;-63
2023/06/01 12:34:39;;;;;;;5.18;2.17;;;23.90;39.10;;;;;;5046678;28;20029;-65
2023/06/01 12:37:15;;;;;;;4.10;1.90;;;24.00;39.10;;;;;;5031592;28;20428;-63
2023/06/01 12:39:42;;;;;;;2.45;1.73;;;24.00;39.00;;;;;;5050135;28;20128;-63
2023/06/01 12:42:10;;;;;;;3.95;2.00;;;24.00;38.90;;;;;;5028176;28;20048;-64
2023/06/01 12:44:36;;;;;;;3.28;1.90;;;24.00;38.80;;;;;;5046043;28;20049;-66
2023/06/01 12:47:03;;;;;;;3.70;1.95;;;24.00;38.70;;;;;;5051845;28;20298;-65
2023/06/01 12:49:30;;;;;;;2.35;1.85;;;24.00;38.60;;;;;;5029024;28;20069;-61
2023/06/01 12:51:56;;;;;;;2.78;1.85;;;24.00;38.50;;;;;;5052817;28;20033;-62
2023/06/01 12:54:21;;;;;;;2.72;1.85;;;24.00;38.50;;;;;;5050784;28;21243;-64
2023/06/01 12:56:48;;;;;;;3.35;1.60;;;24.00;38.40;;;;;;5053421;28;20064;-63
2023/06/01 12:59:15;;;;;;;2.20;1.50;;;24.00;38.40;;;;;;5055165;28;20029;-62
2023/06/01 13:01:40;;;;;;;2.20;1.40;;;24.00;38.30;;;;;;5051627;28;20392;-62